sensor_id;sensor_type;location;lat;lon;timestamp;pressure;altitude;pressure_sealevel;temperature;humidity
72110;BME280;59983;52.010;5.420;2023-10-08T00:00:49;102234.66;;;17.56;100.00
72110;BME280;59983;52.010;5.420;2023-10-08T00:03:16;102241.72;;;17.58;100.00
72110;BME280;59983;52.010;5.420;2023-10-08T00:05:44;102245.28;;;17.58;100.00
72110;BME280;59983;52.010;5.420;2023-10-08T00:08:12;102239.81;;;17.58;100.00
72110;BME280;59983;52.010;5.420;2023-10-08T00:10:43;102242.44;;;17.54;100.00
72110;BME280;59983;52.010;5.420;2023-10-08T00:13:11;102246.28;;;17.50;100.00
72110;BME280;59983;52.010;5.420;2023-10-08T00:15:39;102256.91;;;17.51;100.00
72110;BME280;59983;52.010;5.420;2023-10-08T00:18:20;102273.34;;;17.51;100.00
72110;BME280;59983;52.010;5.420;2023-10-08T00:20:47;102277.25;;;17.50;100.00
72110;BME280;59983;52.010;5.420;2023-10-08T00:23:24;102273.25;;;17.48;100.00
72110;BME280;59983;52.010;5.420;2023-10-08T00:25:53;102281.00;;;17.42;100.00
72110;BME280;59983;52.010;5.420;2023-10-08T00:28:21;102276.13;;;17.36;100.00
72110;BME280;59983;52.010;5.420;2023-10-08T00:30:48;102270.88;;;17.31;100.00
72110;BME280;59983;52.010;5.420;2023-10-08T00:33:16;102284.97;;;17.29;100.00
72110;BME280;59983;52.010;5.420;2023-10-08T00:35:43;102278.31;;;17.30;100.00
72110;BME280;59983;52.010;5.420;2023-10-08T00:38:10;102275.94;;;17.28;100.00
72110;BME280;59983;52.010;5.420;2023-10-08T00:40:47;102263.75;;;17.26;100.00
72110;BME280;59983;52.010;5.420;2023-10-08T00:43:31;102261.25;;;17.21;100.00
72110;BME280;59983;52.010;5.420;2023-10-08T00:46:03;102267.53;;;17.21;100.00
72110;BME280;59983;52.010;5.420;2023-10-08T00:48:31;102263.94;;;17.17;100.00
72110;BME280;59983;52.010;5.420;2023-10-08T00:51:03;102254.19;;;17.20;100.00
72110;BME280;59983;52.010;5.420;2023-10-08T00:53:54;102248.44;;;17.25;100.00
72110;BME280;59983;52.010;5.420;2023-10-08T00:56:27;102239.84;;;17.26;100.00
72110;BME280;59983;52.010;5.420;2023-10-08T00:59:12;102234.00;;;17.28;100.00
72110;BME280;59983;52.010;5.420;2023-10-08T01:01:44;102236.84;;;17.32;100.00
72110;BME280;59983;52.010;5.420;2023-10-08T01:06:44;102224.38;;;17.34;100.00
72110;BME280;59983;52.010;5.420;2023-10-08T01:09:11;102217.72;;;17.35;100.00
72110;BME280;59983;52.010;5.420;2023-10-08T01:12:27;102222.06;;;17.36;100.00
72110;BME280;59983;52.010;5.420;2023-10-08T01:15:01;102220.91;;;17.37;100.00
72110;BME280;59983;52.010;5.420;2023-10-08T01:17:42;102235.41;;;17.38;100.00
72110;BME280;59983;52.010;5.420;2023-10-08T01:20:18;102240.03;;;17.34;100.00
72110;BME280;59983;52.010;5.420;2023-10-08T01:23:06;102231.00;;;17.33;100.00
72110;BME280;59983;52.010;5.420;2023-10-08T01:25:54;102220.31;;;17.28;100.00
72110;BME280;59983;52.010;5.420;2023-10-08T01:28:37;102213.94;;;17.24;100.00
72110;BME280;59983;52.010;5.420;2023-10-08T01:31:04;102222.44;;;17.19;100.00
72110;BME280;59983;52.010;5.420;2023-10-08T01:33:31;102223.84;;;17.13;100.00
72110;BME280;59983;52.010;5.420;2023-10-08T01:35:58;102230.84;;;17.10;100.00
72110;BME280;59983;52.010;5.420;2023-10-08T01:38:32;102240.66;;;17.11;100.00
72110;BME280;59983;52.010;5.420;2023-10-08T01:41:01;102239.16;;;17.14;100.00
72110;BME280;59983;52.010;5.420;2023-10-08T01:43:48;102240.78;;;17.15;100.00
72110;BME280;59983;52.010;5.420;2023-10-08T01:46:18;102242.44;;;17.19;100.00
72110;BME280;59983;52.010;5.420;2023-10-08T01:48:48;102234.63;;;17.21;100.00
72110;BME280;59983;52.010;5.420;2023-10-08T01:51:19;102244.81;;;17.21;100.00
72110;BME280;59983;52.010;5.420;2023-10-08T01:53:54;102263.94;;;17.17;100.00
72110;BME280;59983;52.010;5.420;2023-10-08T01:56:25;102257.66;;;17.17;100.00
72110;BME280;59983;52.010;5.420;2023-10-08T01:58:51;102253.94;;;17.09;100.00
72110;BME280;59983;52.010;5.420;2023-10-08T02:01:21;102277.03;;;17.08;100.00
72110;BME280;59983;52.010;5.420;2023-10-08T02:03:47;102269.22;;;17.10;100.00
72110;BME280;59983;52.010;5.420;2023-10-08T02:06:15;102282.41;;;17.05;100.00
72110;BME280;59983;52.010;5.420;2023-10-08T02:08:42;102282.88;;;17.07;100.00
72110;BME280;59983;52.010;5.420;2023-10-08T02:11:08;102288.88;;;17.12;100.00
72110;BME280;59983;52.010;5.420;2023-10-08T02:13:36;102290.13;;;17.15;100.00
72110;BME280;59983;52.010;5.420;2023-10-08T02:16:03;102287.38;;;17.15;100.00
72110;BME280;59983;52.010;5.420;2023-10-08T02:18:30;102291.34;;;17.17;100.00
72110;BME280;59983;52.010;5.420;2023-10-08T02:20:57;102286.31;;;17.19;100.00
72110;BME280;59983;52.010;5.420;2023-10-08T02:23:25;102289.03;;;17.19;100.00
72110;BME280;59983;52.010;5.420;2023-10-08T02:25:51;102310.63;;;17.21;100.00
72110;BME280;59983;52.010;5.420;2023-10-08T02:28:18;102312.56;;;17.20;100.00
72110;BME280;59983;52.010;5.420;2023-10-08T02:30:47;102315.06;;;17.25;100.00
72110;BME280;59983;52.010;5.420;2023-10-08T02:33:13;102287.19;;;17.23;100.00
72110;BME280;59983;52.010;5.420;2023-10-08T02:35:41;102288.78;;;17.24;100.00
72110;BME280;59983;52.010;5.420;2023-10-08T02:38:17;102270.66;;;17.20;100.00
72110;BME280;59983;52.010;5.420;2023-10-08T02:40:45;102266.31;;;17.19;100.00
72110;BME280;59983;52.010;5.420;2023-10-08T02:43:14;102290.56;;;17.17;100.00
72110;BME280;59983;52.010;5.420;2023-10-08T02:45:42;102275.16;;;17.12;100.00
72110;BME280;59983;52.010;5.420;2023-10-08T02:48:13;102317.78;;;17.10;100.00
72110;BME280;59983;52.010;5.420;2023-10-08T02:50:40;102293.47;;;17.08;100.00
72110;BME280;59983;52.010;5.420;2023-10-08T02:53:07;102289.94;;;17.08;100.00
72110;BME280;59983;52.010;5.420;2023-10-08T02:55:44;102261.44;;;17.12;100.00
72110;BME280;59983;52.010;5.420;2023-10-08T02:58:13;102289.34;;;17.14;100.00
72110;BME280;59983;52.010;5.420;2023-10-08T03:00:47;102297.88;;;17.13;100.00
72110;BME280;59983;52.010;5.420;2023-10-08T03:03:14;102297.44;;;17.11;100.00
72110;BME280;59983;52.010;5.420;2023-10-08T03:05:50;102306.41;;;17.08;100.00
72110;BME280;59983;52.010;5.420;2023-10-08T03:08:18;102290.63;;;17.05;100.00
72110;BME280;59983;52.010;5.420;2023-10-08T03:10:49;102262.78;;;17.03;100.00
72110;BME280;59983;52.010;5.420;2023-10-08T03:13:17;102286.66;;;17.02;100.00
72110;BME280;59983;52.010;5.420;2023-10-08T03:15:43;102300.38;;;17.02;100.00
72110;BME280;59983;52.010;5.420;2023-10-08T03:18:40;102309.19;;;16.95;100.00
72110;BME280;59983;52.010;5.420;2023-10-08T03:21:11;102299.50;;;16.98;100.00
72110;BME280;59983;52.010;5.420;2023-10-08T03:23:50;102313.19;;;16.98;100.00
72110;BME280;59983;52.010;5.420;2023-10-08T03:26:17;102321.50;;;17.02;100.00
72110;BME280;59983;52.010;5.420;2023-10-08T03:29:01;102295.06;;;17.09;100.00
72110;BME280;59983;52.010;5.420;2023-10-08T03:31:32;102293.03;;;17.06;100.00
72110;BME280;59983;52.010;5.420;2023-10-08T03:34:11;102301.50;;;17.01;100.00
72110;BME280;59983;52.010;5.420;2023-10-08T03:36:42;102282.25;;;16.97;100.00
72110;BME280;59983;52.010;5.420;2023-10-08T03:39:11;102277.19;;;16.99;100.00
72110;BME280;59983;52.010;5.420;2023-10-08T03:41:41;102280.50;;;17.05;100.00
72110;BME280;59983;52.010;5.420;2023-10-08T03:44:09;102283.75;;;17.11;100.00
72110;BME280;59983;52.010;5.420;2023-10-08T03:46:47;102301.94;;;17.03;100.00
72110;BME280;59983;52.010;5.420;2023-10-08T03:49:14;102329.53;;;16.94;100.00
72110;BME280;59983;52.010;5.420;2023-10-08T03:52:01;102336.44;;;16.88;100.00
72110;BME280;59983;52.010;5.420;2023-10-08T03:54:28;102329.69;;;16.86;100.00
72110;BME280;59983;52.010;5.420;2023-10-08T03:57:02;102339.88;;;16.85;100.00
72110;BME280;59983;52.010;5.420;2023-10-08T03:59:39;102344.66;;;16.88;100.00
72110;BME280;59983;52.010;5.420;2023-10-08T04:02:08;102343.50;;;16.89;100.00
72110;BME280;59983;52.010;5.420;2023-10-08T04:04:44;102344.66;;;16.88;100.00
72110;BME280;59983;52.010;5.420;2023-10-08T04:07:40;102341.94;;;16.88;100.00
72110;BME280;59983;52.010;5.420;2023-10-08T04:10:27;102349.78;;;16.90;100.00
72110;BME280;59983;52.010;5.420;2023-10-08T04:13:09;102349.00;;;16.89;100.00
72110;BME280;59983;52.010;5.420;2023-10-08T04:15:37;102358.38;;;16.88;100.00
72110;BME280;59983;52.010;5.420;2023-10-08T04:18:11;102383.91;;;16.92;100.00
72110;BME280;59983;52.010;5.420;2023-10-08T04:20:39;102375.34;;;16.94;100.00
72110;BME280;59983;52.010;5.420;2023-10-08T04:23:07;102372.50;;;16.90;100.00
72110;BME280;59983;52.010;5.420;2023-10-08T04:25:44;102365.88;;;16.91;100.00
72110;BME280;59983;52.010;5.420;2023-10-08T04:28:13;102376.84;;;16.91;100.00
72110;BME280;59983;52.010;5.420;2023-10-08T04:30:47;102372.31;;;16.83;100.00
72110;BME280;59983;52.010;5.420;2023-10-08T04:33:17;102374.97;;;16.80;100.00
72110;BME280;59983;52.010;5.420;2023-10-08T04:35:46;102383.28;;;16.83;100.00
72110;BME280;59983;52.010;5.420;2023-10-08T04:38:20;102370.72;;;16.82;100.00
72110;BME280;59983;52.010;5.420;2023-10-08T04:40:52;102373.47;;;16.82;100.00
72110;BME280;59983;52.010;5.420;2023-10-08T04:43:23;102374.19;;;16.79;100.00
72110;BME280;59983;52.010;5.420;2023-10-08T04:45:54;102368.69;;;16.79;100.00
72110;BME280;59983;52.010;5.420;2023-10-08T04:48:24;102371.44;;;16.79;100.00
72110;BME280;59983;52.010;5.420;2023-10-08T04:50:52;102371.44;;;16.79;100.00
72110;BME280;59983;52.010;5.420;2023-10-08T04:53:26;102357.63;;;16.76;100.00
72110;BME280;59983;52.010;5.420;2023-10-08T04:55:59;102352.50;;;16.74;100.00
72110;BME280;59983;52.010;5.420;2023-10-08T04:58:33;102356.47;;;16.77;100.00
72110;BME280;59983;52.010;5.420;2023-10-08T05:01:04;102349.75;;;16.74;100.00
72110;BME280;59983;52.010;5.420;2023-10-08T05:03:51;102369.94;;;16.82;100.00
72110;BME280;59983;52.010;5.420;2023-10-08T05:06:25;102386.03;;;16.83;100.00
72110;BME280;59983;52.010;5.420;2023-10-08T05:09:10;102389.00;;;16.78;100.00
72110;BME280;59983;52.010;5.420;2023-10-08T05:11:48;102384.00;;;16.80;100.00
72110;BME280;59983;52.010;5.420;2023-10-08T05:14:20;102387.16;;;16.82;100.00
72110;BME280;59983;52.010;5.420;2023-10-08T05:17:00;102389.13;;;16.82;100.00
72110;BME280;59983;52.010;5.420;2023-10-08T05:19:30;102383.72;;;16.85;100.00
72110;BME280;59983;52.010;5.420;2023-10-08T05:22:05;102375.50;;;16.85;100.00
72110;BME280;59983;52.010;5.420;2023-10-08T05:24:48;102374.25;;;16.83;100.00
72110;BME280;59983;52.010;5.420;2023-10-08T05:27:35;102373.72;;;16.77;100.00
72110;BME280;59983;52.010;5.420;2023-10-08T05:30:10;102383.19;;;16.80;100.00
72110;BME280;59983;52.010;5.420;2023-10-08T05:32:45;102402.69;;;16.78;100.00
72110;BME280;59983;52.010;5.420;2023-10-08T05:35:30;102412.34;;;16.72;100.00
72110;BME280;59983;52.010;5.420;2023-10-08T05:38:10;102411.75;;;16.66;100.00
72110;BME280;59983;52.010;5.420;2023-10-08T05:40:43;102412.91;;;16.65;100.00
72110;BME280;59983;52.010;5.420;2023-10-08T05:43:38;102404.59;;;16.62;100.00
72110;BME280;59983;52.010;5.420;2023-10-08T05:46:09;102411.53;;;16.59;100.00
72110;BME280;59983;52.010;5.420;2023-10-08T05:48:45;102407.47;;;16.53;100.00
72110;BME280;59983;52.010;5.420;2023-10-08T05:51:17;102410.56;;;16.39;100.00
72110;BME280;59983;52.010;5.420;2023-10-08T05:54:21;102411.16;;;16.33;100.00
72110;BME280;59983;52.010;5.420;2023-10-08T05:56:54;102426.78;;;16.32;100.00
72110;BME280;59983;52.010;5.420;2023-10-08T05:59:40;102422.78;;;16.30;100.00
72110;BME280;59983;52.010;5.420;2023-10-08T06:02:40;102442.31;;;16.16;100.00
72110;BME280;59983;52.010;5.420;2023-10-08T06:05:10;102434.34;;;16.11;100.00
72110;BME280;59983;52.010;5.420;2023-10-08T06:07:52;102440.97;;;16.10;100.00
72110;BME280;59983;52.010;5.420;2023-10-08T06:10:27;102437.19;;;15.90;100.00
72110;BME280;59983;52.010;5.420;2023-10-08T06:13:16;102422.94;;;15.72;100.00
72110;BME280;59983;52.010;5.420;2023-10-08T06:15:47;102407.44;;;15.64;100.00
72110;BME280;59983;52.010;5.420;2023-10-08T06:18:26;102422.81;;;15.69;100.00
72110;BME280;59983;52.010;5.420;2023-10-08T06:20:54;102448.69;;;15.71;100.00
72110;BME280;59983;52.010;5.420;2023-10-08T06:23:22;102470.03;;;15.66;100.00
72110;BME280;59983;52.010;5.420;2023-10-08T06:25:50;102469.09;;;15.62;100.00
72110;BME280;59983;52.010;5.420;2023-10-08T06:28:25;102485.31;;;15.46;100.00
72110;BME280;59983;52.010;5.420;2023-10-08T06:30:55;102489.53;;;15.43;100.00
72110;BME280;59983;52.010;5.420;2023-10-08T06:33:25;102493.50;;;15.46;100.00
72110;BME280;59983;52.010;5.420;2023-10-08T06:35:57;102490.91;;;15.37;100.00
72110;BME280;59983;52.010;5.420;2023-10-08T06:38:40;102500.00;;;15.41;100.00
72110;BME280;59983;52.010;5.420;2023-10-08T06:41:09;102496.69;;;15.36;100.00
72110;BME280;59983;52.010;5.420;2023-10-08T06:43:37;102497.16;;;15.38;100.00
72110;BME280;59983;52.010;5.420;2023-10-08T06:46:05;102493.06;;;15.44;100.00
72110;BME280;59983;52.010;5.420;2023-10-08T06:48:39;102501.00;;;15.37;100.00
72110;BME280;59983;52.010;5.420;2023-10-08T06:51:09;102497.97;;;15.38;100.00
72110;BME280;59983;52.010;5.420;2023-10-08T06:53:45;102499.22;;;15.41;100.00
72110;BME280;59983;52.010;5.420;2023-10-08T06:56:13;102498.63;;;15.35;100.00
72110;BME280;59983;52.010;5.420;2023-10-08T06:58:40;102504.38;;;15.21;100.00
72110;BME280;59983;52.010;5.420;2023-10-08T07:01:12;102506.34;;;15.33;100.00
72110;BME280;59983;52.010;5.420;2023-10-08T07:03:39;102518.63;;;15.27;100.00
72110;BME280;59983;52.010;5.420;2023-10-08T07:06:06;102529.38;;;15.32;100.00
72110;BME280;59983;52.010;5.420;2023-10-08T07:08:44;102523.72;;;15.37;100.00
72110;BME280;59983;52.010;5.420;2023-10-08T07:11:22;102519.25;;;15.45;100.00
72110;BME280;59983;52.010;5.420;2023-10-08T07:13:50;102519.97;;;15.54;100.00
72110;BME280;59983;52.010;5.420;2023-10-08T07:16:17;102528.97;;;15.54;100.00
72110;BME280;59983;52.010;5.420;2023-10-08T07:18:45;102526.47;;;15.49;100.00
72110;BME280;59983;52.010;5.420;2023-10-08T07:21:18;102520.56;;;15.59;100.00
72110;BME280;59983;52.010;5.420;2023-10-08T07:23:50;102532.00;;;15.62;100.00
72110;BME280;59983;52.010;5.420;2023-10-08T07:26:25;102534.00;;;15.52;100.00
72110;BME280;59983;52.010;5.420;2023-10-08T07:28:53;102520.25;;;15.61;100.00
72110;BME280;59983;52.010;5.420;2023-10-08T07:31:21;102524.72;;;15.66;100.00
72110;BME280;59983;52.010;5.420;2023-10-08T07:33:50;102522.56;;;15.71;100.00
72110;BME280;59983;52.010;5.420;2023-10-08T07:36:26;102526.78;;;15.69;100.00
72110;BME280;59983;52.010;5.420;2023-10-08T07:38:53;102531.66;;;15.63;100.00
72110;BME280;59983;52.010;5.420;2023-10-08T07:41:20;102536.81;;;15.65;100.00
72110;BME280;59983;52.010;5.420;2023-10-08T07:43:47;102538.19;;;15.71;100.00
72110;BME280;59983;52.010;5.420;2023-10-08T07:46:25;102539.38;;;15.82;100.00
72110;BME280;59983;52.010;5.420;2023-10-08T07:48:53;102539.94;;;15.88;100.00
72110;BME280;59983;52.010;5.420;2023-10-08T07:51:21;102550.16;;;15.78;100.00
72110;BME280;59983;52.010;5.420;2023-10-08T07:53:53;102542.56;;;15.84;100.00
72110;BME280;59983;52.010;5.420;2023-10-08T07:56:23;102534.81;;;15.86;100.00
72110;BME280;59983;52.010;5.420;2023-10-08T07:58:53;102551.22;;;15.86;100.00
72110;BME280;59983;52.010;5.420;2023-10-08T08:01:23;102552.38;;;15.85;100.00
72110;BME280;59983;52.010;5.420;2023-10-08T08:03:53;102558.97;;;15.84;100.00
72110;BME280;59983;52.010;5.420;2023-10-08T08:06:20;102574.47;;;15.80;100.00
72110;BME280;59983;52.010;5.420;2023-10-08T08:08:49;102594.75;;;15.79;100.00
72110;BME280;59983;52.010;5.420;2023-10-08T08:11:15;102594.19;;;15.73;100.00
72110;BME280;59983;52.010;5.420;2023-10-08T08:13:46;102595.97;;;15.69;100.00
72110;BME280;59983;52.010;5.420;2023-10-08T08:16:14;102586.88;;;15.77;100.00
72110;BME280;59983;52.010;5.420;2023-10-08T08:18:44;102592.28;;;15.86;100.00
72110;BME280;59983;52.010;5.420;2023-10-08T08:21:12;102587.72;;;15.90;100.00
72110;BME280;59983;52.010;5.420;2023-10-08T08:23:46;102599.94;;;15.93;100.00
72110;BME280;59983;52.010;5.420;2023-10-08T08:26:18;102602.44;;;15.98;100.00
72110;BME280;59983;52.010;5.420;2023-10-08T08:28:57;102605.06;;;15.94;100.00
72110;BME280;59983;52.010;5.420;2023-10-08T08:31:24;102605.31;;;16.01;100.00
72110;BME280;59983;52.010;5.420;2023-10-08T08:33:53;102602.59;;;16.01;100.00
72110;BME280;59983;52.010;5.420;2023-10-08T08:36:23;102607.72;;;16.03;100.00
72110;BME280;59983;52.010;5.420;2023-10-08T08:38:50;102610.56;;;16.06;100.00
72110;BME280;59983;52.010;5.420;2023-10-08T08:41:17;102609.31;;;16.16;100.00
72110;BME280;59983;52.010;5.420;2023-10-08T08:43:48;102620.88;;;16.22;100.00
72110;BME280;59983;52.010;5.420;2023-10-08T08:46:15;102622.47;;;16.23;100.00
72110;BME280;59983;52.010;5.420;2023-10-08T08:48:43;102628.38;;;16.25;100.00
72110;BME280;59983;52.010;5.420;2023-10-08T08:51:14;102621.31;;;16.24;100.00
72110;BME280;59983;52.010;5.420;2023-10-08T08:53:41;102628.06;;;16.26;100.00
72110;BME280;59983;52.010;5.420;2023-10-08T08:56:09;102634.81;;;16.29;100.00
72110;BME280;59983;52.010;5.420;2023-10-08T08:58:36;102632.16;;;16.32;100.00
72110;BME280;59983;52.010;5.420;2023-10-08T09:01:07;102631.25;;;16.28;100.00
72110;BME280;59983;52.010;5.420;2023-10-08T09:03:36;102626.59;;;16.29;100.00
72110;BME280;59983;52.010;5.420;2023-10-08T09:06:03;102621.22;;;16.20;100.00
72110;BME280;59983;52.010;5.420;2023-10-08T09:08:37;102619.16;;;16.29;100.00
72110;BME280;59983;52.010;5.420;2023-10-08T09:11:14;102622.16;;;16.36;100.00
72110;BME280;59983;52.010;5.420;2023-10-08T09:13:41;102623.50;;;16.42;100.00
72110;BME280;59983;52.010;5.420;2023-10-08T09:16:11;102622.50;;;16.47;100.00
72110;BME280;59983;52.010;5.420;2023-10-08T09:18:38;102615.78;;;16.45;100.00
72110;BME280;59983;52.010;5.420;2023-10-08T09:21:11;102610.28;;;16.45;100.00
72110;BME280;59983;52.010;5.420;2023-10-08T09:23:42;102608.69;;;16.56;100.00
72110;BME280;59983;52.010;5.420;2023-10-08T09:26:10;102599.91;;;16.62;100.00
72110;BME280;59983;52.010;5.420;2023-10-08T09:28:37;102598.53;;;16.68;100.00
72110;BME280;59983;52.010;5.420;2023-10-08T09:31:11;102592.75;;;16.70;100.00
72110;BME280;59983;52.010;5.420;2023-10-08T09:33:38;102606.56;;;16.74;100.00
72110;BME280;59983;52.010;5.420;2023-10-08T09:36:05;102617.16;;;16.75;100.00
72110;BME280;59983;52.010;5.420;2023-10-08T09:38:33;102619.69;;;16.80;100.00
72110;BME280;59983;52.010;5.420;2023-10-08T09:41:00;102618.09;;;16.79;100.00
72110;BME280;59983;52.010;5.420;2023-10-08T09:43:30;102620.22;;;16.86;100.00
72110;BME280;59983;52.010;5.420;2023-10-08T09:46:14;102620.13;;;16.82;100.00
72110;BME280;59983;52.010;5.420;2023-10-08T09:48:48;102624.38;;;16.80;100.00
72110;BME280;59983;52.010;5.420;2023-10-08T09:51:15;102628.03;;;16.72;100.00
72110;BME280;59983;52.010;5.420;2023-10-08T09:54:05;102623.00;;;16.74;100.00
72110;BME280;59983;52.010;5.420;2023-10-08T09:56:37;102616.47;;;16.78;100.00
72110;BME280;59983;52.010;5.420;2023-10-08T09:59:06;102612.94;;;16.78;100.00
72110;BME280;59983;52.010;5.420;2023-10-08T10:01:41;102606.31;;;16.79;100.00
72110;BME280;59983;52.010;5.420;2023-10-08T10:04:09;102609.97;;;16.83;100.00
72110;BME280;59983;52.010;5.420;2023-10-08T10:06:37;102621.63;;;16.80;100.00
72110;BME280;59983;52.010;5.420;2023-10-08T10:09:06;102622.88;;;16.82;100.00
72110;BME280;59983;52.010;5.420;2023-10-08T10:11:49;102617.38;;;16.82;100.00
72110;BME280;59983;52.010;5.420;2023-10-08T10:14:22;102611.13;;;16.82;100.00
72110;BME280;59983;52.010;5.420;2023-10-08T10:17:08;102620.47;;;16.81;100.00
72110;BME280;59983;52.010;5.420;2023-10-08T10:19:36;102616.59;;;16.82;100.00
72110;BME280;59983;52.010;5.420;2023-10-08T10:22:02;102620.72;;;16.88;100.00
72110;BME280;59983;52.010;5.420;2023-10-08T10:24:33;102622.31;;;16.89;100.00
72110;BME280;59983;52.010;5.420;2023-10-08T10:27:14;102617.84;;;16.84;100.00
72110;BME280;59983;52.010;5.420;2023-10-08T10:29:44;102621.03;;;16.86;100.00
72110;BME280;59983;52.010;5.420;2023-10-08T10:32:12;102625.41;;;16.87;100.00
72110;BME280;59983;52.010;5.420;2023-10-08T10:34:43;102629.72;;;16.88;100.00
72110;BME280;59983;52.010;5.420;2023-10-08T10:37:10;102630.72;;;16.96;100.00
72110;BME280;59983;52.010;5.420;2023-10-08T10:39:56;102634.97;;;16.93;100.00
72110;BME280;59983;52.010;5.420;2023-10-08T10:42:26;102625.94;;;16.93;100.00
72110;BME280;59983;52.010;5.420;2023-10-08T10:44:55;102631.78;;;16.91;100.00
72110;BME280;59983;52.010;5.420;2023-10-08T10:47:22;102631.78;;;16.91;100.00
72110;BME280;59983;52.010;5.420;2023-10-08T10:49:53;102631.19;;;16.98;100.00
72110;BME280;59983;52.010;5.420;2023-10-08T10:52:27;102637.25;;;16.91;100.00
72110;BME280;59983;52.010;5.420;2023-10-08T10:55:19;102636.19;;;16.96;100.00
72110;BME280;59983;52.010;5.420;2023-10-08T10:57:58;102630.28;;;17.06;100.00
72110;BME280;59983;52.010;5.420;2023-10-08T11:00:42;102621.44;;;17.13;100.00
72110;BME280;59983;52.010;5.420;2023-10-08T11:03:09;102620.06;;;17.19;100.00
72110;BME280;59983;52.010;5.420;2023-10-08T11:05:57;102608.31;;;17.18;100.00
72110;BME280;59983;52.010;5.420;2023-10-08T11:08:27;102605.78;;;17.13;100.00
72110;BME280;59983;52.010;5.420;2023-10-08T11:11:01;102602.13;;;17.21;100.00
72110;BME280;59983;52.010;5.420;2023-10-08T11:13:34;102611.41;;;17.17;100.00
72110;BME280;59983;52.010;5.420;2023-10-08T11:16:07;102615.63;;;17.14;100.00
72110;BME280;59983;52.010;5.420;2023-10-08T11:18:42;102619.19;;;17.15;100.00
72110;BME280;59983;52.010;5.420;2023-10-08T11:21:10;102620.78;;;17.16;100.00
72110;BME280;59983;52.010;5.420;2023-10-08T11:23:48;102628.88;;;17.12;100.00
72110;BME280;59983;52.010;5.420;2023-10-08T11:26:26;102621.44;;;17.13;100.00
72110;BME280;59983;52.010;5.420;2023-10-08T11:29:06;102617.56;;;17.14;100.00
72110;BME280;59983;52.010;5.420;2023-10-08T11:31:40;102616.31;;;17.11;100.00
72110;BME280;59983;52.010;5.420;2023-10-08T11:34:11;102603.75;;;17.10;100.00
72110;BME280;59983;52.010;5.420;2023-10-08T11:36:40;102609.91;;;17.19;100.00
72110;BME280;59983;52.010;5.420;2023-10-08T11:39:20;102596.31;;;17.23;100.00
72110;BME280;59983;52.010;5.420;2023-10-08T11:42:00;102595.59;;;17.26;100.00
72110;BME280;59983;52.010;5.420;2023-10-08T11:44:31;102602.69;;;17.27;100.00
72110;BME280;59983;52.010;5.420;2023-10-08T11:47:03;102595.59;;;17.26;100.00
72110;BME280;59983;52.010;5.420;2023-10-08T11:49:43;102595.25;;;17.27;100.00
72110;BME280;59983;52.010;5.420;2023-10-08T11:52:39;102589.41;;;17.29;100.00
72110;BME280;59983;52.010;5.420;2023-10-08T11:55:09;102596.16;;;17.32;100.00
72110;BME280;59983;52.010;5.420;2023-10-08T11:57:36;102589.75;;;17.27;100.00
72110;BME280;59983;52.010;5.420;2023-10-08T12:00:09;102592.59;;;17.31;100.00
72110;BME280;59983;52.010;5.420;2023-10-08T12:03:02;102582.97;;;17.37;100.00
72110;BME280;59983;52.010;5.420;2023-10-08T12:05:32;102586.03;;;17.48;100.00
72110;BME280;59983;52.010;5.420;2023-10-08T12:08:01;102582.25;;;17.52;100.00
72110;BME280;59983;52.010;5.420;2023-10-08T12:10:27;102573.66;;;17.54;100.00
72110;BME280;59983;52.010;5.420;2023-10-08T12:12:57;102579.34;;;17.61;100.00
72110;BME280;59983;52.010;5.420;2023-10-08T12:15:26;102570.63;;;17.71;100.00
72110;BME280;59983;52.010;5.420;2023-10-08T12:18:05;102575.59;;;17.81;100.00
72110;BME280;59983;52.010;5.420;2023-10-08T12:20:36;102566.75;;;17.88;100.00
72110;BME280;59983;52.010;5.420;2023-10-08T12:23:10;102561.09;;;17.97;100.00
72110;BME280;59983;52.010;5.420;2023-10-08T12:25:37;102557.22;;;18.14;100.00
72110;BME280;59983;52.010;5.420;2023-10-08T12:28:04;102544.19;;;18.26;100.00
72110;BME280;59983;52.010;5.420;2023-10-08T12:30:31;102535.91;;;18.42;100.00
72110;BME280;59983;52.010;5.420;2023-10-08T12:32:59;102529.50;;;18.54;100.00
72110;BME280;59983;52.010;5.420;2023-10-08T12:35:27;102526.84;;;18.57;100.00
72110;BME280;59983;52.010;5.420;2023-10-08T12:37:56;102527.13;;;18.52;100.00
72110;BME280;59983;52.010;5.420;2023-10-08T12:40:23;102529.69;;;18.45;100.00
72110;BME280;59983;52.010;5.420;2023-10-08T12:42:53;102520.50;;;18.37;100.00
72110;BME280;59983;52.010;5.420;2023-10-08T12:45:20;102518.09;;;18.36;100.00
72110;BME280;59983;52.010;5.420;2023-10-08T12:47:49;102520.41;;;18.34;100.00
72110;BME280;59983;52.010;5.420;2023-10-08T12:50:17;102520.25;;;18.27;100.00
72110;BME280;59983;52.010;5.420;2023-10-08T12:52:49;102519.81;;;18.25;100.00
72110;BME280;59983;52.010;5.420;2023-10-08T12:55:22;102523.97;;;18.19;100.00
72110;BME280;59983;52.010;5.420;2023-10-08T12:57:53;102526.22;;;18.13;100.00
72110;BME280;59983;52.010;5.420;2023-10-08T13:00:29;102523.19;;;18.18;100.00
72110;BME280;59983;52.010;5.420;2023-10-08T13:02:58;102517.31;;;18.20;100.00
72110;BME280;59983;52.010;5.420;2023-10-08T13:05:24;102506.44;;;18.23;100.00
72110;BME280;59983;52.010;5.420;2023-10-08T13:07:55;102508.19;;;18.31;100.00
72110;BME280;59983;52.010;5.420;2023-10-08T13:10:23;102504.66;;;18.31;100.00